Airfield :
LOGIN :

Register | Disclaimer

   EN    FR    IT 

 










Legend :    VFR   Marginal VFR   IFR   Intensive IFR   Very Intensive IFR
Visi :
Ceiling :
>= 8 km
>= 3000ft
5 to 8 km
1000 to 3000 ft
1500m to 5 km
500 to 1000 ft
800 to 1500m
200 to 500 ft
< 800m
< 200 ft
Symbols :   Thunderstorms  Fog  Heavy snow  Heavy precipitations  Wind > 20 kt
SIGMETs :     Misc.  Thunderstorms  Icing  Turbulence  Mountain Waves  Volcanic Ashes







- Airport Elevation : 53 ft
- IATA code : HAM


EDDH - Hamburg

CURRENT METAR :
  • 121750Z 24008KT 9999 BKN006 02/01 Q1007 TEMPO SCT005

EXPIRED METARs :
  • 121720Z 23011KT 9999 BKN006 02/01 Q1007 TEMPO SCT005
  • 121650Z 24005KT 220V280 9999 BKN022 02/01 Q1007 TEMPO BKN005
  • 121620Z 25008KT 9999 BKN025 02/01 Q1006 TEMPO BKN005
  • 121550Z 26006KT 9999 FEW012 BKN028 02/01 Q1005 TEMPO BKN005
  • 121520Z 26008KT 9999 FEW035 02/01 Q1004 NOSIG
  • 121450Z 26007KT 9999 -SN FEW035 BKN100 01/01 Q1003 NOSIG

TAF TAF EDDH
Valid from the 12 at 18:00 until the 14 at 00:00 UTC


121700Z 1218/1324 25008KT 9999 SCT005 BKN025
TEMPO 1218/1302 3500 BR BKN004
TEMPO 1302/1305 3500 BR BKN007
BECMG 1309/1311 18012KT
TEMPO 1309/1314 20015G25KT
BECMG 1310/1313 OVC005
TEMPO 1313/1317 3000 -RASN OVC003
TEMPO 1322/1324 BKN010
No reported NOTAMs for that airfield.



MET'MAP, your aeronautical weather chart ! - Copyright ORBIFLY December 2007 - Disclaimer

ORBIFLY MET'MAP TEAM :

Programming & Development : Alexandra Zaïnal
Concept & Development : Baudouin d'Aumeries
Co-Development & Prog : Marc-Olivier Méhu
Technical & hardware support : Manuel Goepfert

Contact : metmap@orbifly.com




SOURCES & CREDITS :

   NOAA